TSC748 KMIA-CYYZ
Flight info
| Callsign | TSC748 |
|---|---|
| Flight time | 2h 32m |
| Altitude | 35000 |
| Route | ALTNN2 DUCEN Q87 VIYAP Q69 RICCS DCT OXMAN LINNG3 |
| Aircraft | A321/H-SDFGHIRWXY/S |
Departure
| Time | 2026-05-07 16:30 |
|---|---|
| Airport | Miami International Airport (KMIA) |
Arrival
| Time | 2026-05-07 19:03 |
|---|---|
| Airport | Toronto Pearson International Airport (CYYZ) |
| Time | Latitude | Longitude | Altitude | Speed | Heading |
|---|---|---|---|---|---|
| 2026-05-07 16:12 | 25.79025 | -80.27609 | 19 ft | 0 kts | 268° |
| 2026-05-07 16:21 | 25.79025 | -80.27596 | 18 ft | 3 kts | 266° |
| 2026-05-07 16:21 | 25.79027 | -80.27573 | 19 ft | 3 kts | 263° |
| 2026-05-07 16:21 | 25.79030 | -80.27551 | 18 ft | 3 kts | 256° |
| 2026-05-07 16:22 | 25.79036 | -80.27530 | 17 ft | 3 kts | 239° |
| 2026-05-07 16:22 | 25.79047 | -80.27516 | 18 ft | 3 kts | 196° |
| 2026-05-07 16:22 | 25.79054 | -80.27514 | 16 ft | 0 kts | 177° |
| 2026-05-07 16:24 | 25.79047 | -80.27513 | 16 ft | 6 kts | 177° |
| 2026-05-07 16:24 | 25.78968 | -80.27505 | 18 ft | 12 kts | 179° |
| 2026-05-07 16:24 | 25.78908 | -80.27520 | 19 ft | 9 kts | 231° |
| 2026-05-07 16:24 | 25.78883 | -80.27659 | 18 ft | 24 kts | 263° |
| 2026-05-07 16:25 | 25.78886 | -80.27818 | 21 ft | 17 kts | 293° |
| 2026-05-07 16:25 | 25.78938 | -80.27922 | 22 ft | 15 kts | 300° |
| 2026-05-07 16:25 | 25.79010 | -80.28064 | 22 ft | 26 kts | 298° |
| 2026-05-07 16:25 | 25.79097 | -80.28235 | 23 ft | 24 kts | 302° |
| 2026-05-07 16:26 | 25.79176 | -80.28376 | 19 ft | 18 kts | 307° |
| 2026-05-07 16:26 | 25.79257 | -80.28481 | 18 ft | 24 kts | 298° |
| 2026-05-07 16:26 | 25.79356 | -80.28678 | 15 ft | 31 kts | 299° |
| 2026-05-07 16:26 | 25.79423 | -80.28808 | 15 ft | 27 kts | 301° |
| 2026-05-07 16:27 | 25.79536 | -80.29028 | 16 ft | 22 kts | 300° |
| 2026-05-07 16:27 | 25.79607 | -80.29167 | 19 ft | 24 kts | 299° |
| 2026-05-07 16:27 | 25.79734 | -80.29417 | 18 ft | 41 kts | 299° |
| 2026-05-07 16:27 | 25.79871 | -80.29684 | 13 ft | 38 kts | 299° |
| 2026-05-07 16:28 | 25.79889 | -80.29876 | 13 ft | 19 kts | 270° |
| 2026-05-07 16:28 | 25.79939 | -80.30002 | 12 ft | 16 kts | 300° |
| 2026-05-07 16:28 | 25.79987 | -80.30095 | 14 ft | 11 kts | 300° |
| 2026-05-07 16:28 | 25.80033 | -80.30129 | 15 ft | 9 kts | 350° |
| 2026-05-07 16:29 | 25.80074 | -80.30072 | 13 ft | 12 kts | 86° |
| 2026-05-07 16:29 | 25.80078 | -80.29928 | 12 ft | 34 kts | 86° |
| 2026-05-07 16:29 | 25.80100 | -80.29416 | 16 ft | 98 kts | 87° |
| 2026-05-07 16:29 | 25.80140 | -80.28461 | 17 ft | 149 kts | 87° |
| 2026-05-07 16:30 | 25.80196 | -80.27174 | 173 ft | 176 kts | 89° |
| 2026-05-07 16:30 | 25.80253 | -80.25839 | 793 ft | 176 kts | 88° |
| 2026-05-07 16:30 | 25.80317 | -80.24397 | 1068 ft | 198 kts | 89° |
| 2026-05-07 16:30 | 25.80386 | -80.22781 | 1319 ft | 221 kts | 89° |
| 2026-05-07 16:31 | 25.80458 | -80.20992 | 1641 ft | 241 kts | 88° |
| 2026-05-07 16:31 | 25.80532 | -80.19093 | 2108 ft | 255 kts | 89° |
| 2026-05-07 16:31 | 25.80837 | -80.17113 | 2655 ft | 267 kts | 65° |
| 2026-05-07 16:31 | 25.81556 | -80.16002 | 3059 ft | 272 kts | 41° |
| 2026-05-07 16:32 | 25.83875 | -80.14989 | 3961 ft | 275 kts | 4° |
| 2026-05-07 16:32 | 25.85141 | -80.14965 | 4442 ft | 276 kts | 357° |
| 2026-05-07 16:32 | 25.87062 | -80.15126 | 5139 ft | 278 kts | 354° |
| 2026-05-07 16:32 | 25.88993 | -80.15355 | 5768 ft | 281 kts | 348° |
| 2026-05-07 16:33 | 25.90835 | -80.16084 | 6405 ft | 283 kts | 335° |
| 2026-05-07 16:33 | 25.92667 | -80.16910 | 6993 ft | 285 kts | 340° |
| 2026-05-07 16:33 | 25.94555 | -80.17622 | 7539 ft | 289 kts | 342° |
| 2026-05-07 16:33 | 25.96483 | -80.18288 | 8090 ft | 292 kts | 343° |
| 2026-05-07 16:34 | 25.98438 | -80.18929 | 8644 ft | 295 kts | 348° |
| 2026-05-07 16:34 | 26.00482 | -80.19220 | 9160 ft | 298 kts | 356° |
| 2026-05-07 16:34 | 26.02561 | -80.19403 | 9706 ft | 301 kts | 356° |
| 2026-05-07 16:34 | 26.04652 | -80.19604 | 10228 ft | 304 kts | 356° |
| 2026-05-07 16:35 | 26.06818 | -80.19824 | 10374 ft | 321 kts | 355° |
| 2026-05-07 16:35 | 26.09093 | -80.20062 | 10496 ft | 337 kts | 355° |
| 2026-05-07 16:35 | 26.11487 | -80.20314 | 10613 ft | 353 kts | 355° |
| 2026-05-07 16:35 | 26.13981 | -80.20575 | 10731 ft | 367 kts | 355° |
| 2026-05-07 16:36 | 26.16571 | -80.20844 | 10849 ft | 381 kts | 355° |
| 2026-05-07 16:36 | 26.19255 | -80.21121 | 10967 ft | 393 kts | 355° |
| 2026-05-07 16:36 | 26.21985 | -80.21393 | 11084 ft | 404 kts | 356° |
| 2026-05-07 16:36 | 26.24816 | -80.21655 | 11274 ft | 411 kts | 355° |
| 2026-05-07 16:37 | 26.27674 | -80.21906 | 11605 ft | 413 kts | 355° |
| 2026-05-07 16:37 | 26.30546 | -80.22156 | 11955 ft | 414 kts | 355° |
| 2026-05-07 16:37 | 26.33421 | -80.22405 | 12310 ft | 415 kts | 355° |
| 2026-05-07 16:37 | 26.36310 | -80.22658 | 12644 ft | 416 kts | 355° |
| 2026-05-07 16:38 | 26.39204 | -80.22919 | 12994 ft | 417 kts | 354° |
| 2026-05-07 16:38 | 26.42098 | -80.23202 | 13303 ft | 418 kts | 354° |
| 2026-05-07 16:38 | 26.45000 | -80.23502 | 13659 ft | 419 kts | 354° |
| 2026-05-07 16:38 | 26.47904 | -80.23809 | 13955 ft | 420 kts | 354° |
| 2026-05-07 16:39 | 26.50832 | -80.24119 | 14232 ft | 422 kts | 354° |
| 2026-05-07 16:39 | 26.53755 | -80.24427 | 14512 ft | 423 kts | 353° |
| 2026-05-07 16:39 | 26.56694 | -80.24742 | 14830 ft | 424 kts | 353° |
| 2026-05-07 16:39 | 26.59581 | -80.25129 | 15115 ft | 425 kts | 351° |
| 2026-05-07 16:40 | 26.62556 | -80.25612 | 15428 ft | 426 kts | 350° |
| 2026-05-07 16:40 | 26.65493 | -80.26138 | 15749 ft | 428 kts | 349° |
| 2026-05-07 16:40 | 26.68395 | -80.26670 | 16069 ft | 429 kts | 349° |
| 2026-05-07 16:40 | 26.71313 | -80.27397 | 16385 ft | 429 kts | 341° |
| 2026-05-07 16:41 | 26.74122 | -80.28549 | 16712 ft | 430 kts | 338° |
| 2026-05-07 16:41 | 26.76926 | -80.29734 | 17049 ft | 431 kts | 338° |
| 2026-05-07 16:41 | 26.79737 | -80.30905 | 17402 ft | 433 kts | 338° |
| 2026-05-07 16:41 | 26.82571 | -80.32078 | 17758 ft | 434 kts | 338° |
| 2026-05-07 16:42 | 26.85412 | -80.33254 | 18106 ft | 436 kts | 338° |
| 2026-05-07 16:42 | 26.88265 | -80.34440 | 18437 ft | 437 kts | 338° |
| 2026-05-07 16:42 | 26.91087 | -80.35618 | 18714 ft | 439 kts | 338° |
| 2026-05-07 16:42 | 26.93952 | -80.36819 | 18991 ft | 440 kts | 337° |
| 2026-05-07 16:43 | 26.96835 | -80.38016 | 19269 ft | 442 kts | 338° |
| 2026-05-07 16:43 | 26.99735 | -80.39194 | 19545 ft | 444 kts | 338° |
| 2026-05-07 16:43 | 27.02651 | -80.40364 | 19820 ft | 445 kts | 338° |
| 2026-05-07 16:43 | 27.05574 | -80.41531 | 20098 ft | 447 kts | 338° |
| 2026-05-07 16:44 | 27.08512 | -80.42705 | 20367 ft | 448 kts | 338° |
| 2026-05-07 16:44 | 27.11445 | -80.43907 | 20636 ft | 450 kts | 337° |
| 2026-05-07 16:44 | 27.14370 | -80.45168 | 20911 ft | 451 kts | 336° |
| 2026-05-07 16:44 | 27.17287 | -80.46471 | 21206 ft | 452 kts | 335° |
| 2026-05-07 16:45 | 27.20207 | -80.47795 | 21480 ft | 453 kts | 335° |
| 2026-05-07 16:45 | 27.23144 | -80.49127 | 21746 ft | 455 kts | 335° |
| 2026-05-07 16:45 | 27.26093 | -80.50450 | 21997 ft | 456 kts | 335° |
| 2026-05-07 16:45 | 27.29049 | -80.51761 | 22257 ft | 458 kts | 335° |
| 2026-05-07 16:46 | 27.32015 | -80.53070 | 22492 ft | 459 kts | 335° |
| 2026-05-07 16:46 | 27.34960 | -80.54367 | 22708 ft | 461 kts | 335° |
| 2026-05-07 16:46 | 27.37951 | -80.55675 | 22912 ft | 463 kts | 336° |
| 2026-05-07 16:46 | 27.40977 | -80.56931 | 23112 ft | 464 kts | 337° |
| 2026-05-07 16:47 | 27.44029 | -80.58141 | 23318 ft | 466 kts | 337° |
| 2026-05-07 16:47 | 27.47102 | -80.59327 | 23499 ft | 467 kts | 338° |
| 2026-05-07 16:47 | 27.50181 | -80.60512 | 23661 ft | 468 kts | 338° |
| 2026-05-07 16:47 | 27.53266 | -80.61711 | 23801 ft | 469 kts | 337° |
| 2026-05-07 16:48 | 27.54310 | -80.62121 | 23846 ft | 469 kts | 337° |
| 2026-05-07 16:48 | 27.59432 | -80.64152 | 24087 ft | 470 kts | 337° |
| 2026-05-07 16:48 | 27.62517 | -80.65382 | 24288 ft | 469 kts | 337° |
| 2026-05-07 16:48 | 27.65588 | -80.66609 | 24482 ft | 468 kts | 337° |
| 2026-05-07 16:49 | 27.68656 | -80.67840 | 24668 ft | 468 kts | 336° |
| 2026-05-07 16:49 | 27.71718 | -80.69067 | 24885 ft | 467 kts | 336° |
| 2026-05-07 16:49 | 27.74782 | -80.70294 | 25078 ft | 467 kts | 336° |
| 2026-05-07 16:49 | 27.77846 | -80.71520 | 25305 ft | 466 kts | 336° |
| 2026-05-07 16:50 | 27.80895 | -80.72738 | 25531 ft | 465 kts | 336° |
| 2026-05-07 16:50 | 27.83936 | -80.73952 | 25738 ft | 464 kts | 336° |
| 2026-05-07 16:50 | 27.86983 | -80.75169 | 25948 ft | 464 kts | 336° |
| 2026-05-07 16:50 | 27.90020 | -80.76385 | 26155 ft | 463 kts | 336° |
| 2026-05-07 16:51 | 27.93061 | -80.77603 | 26362 ft | 463 kts | 336° |
| 2026-05-07 16:51 | 27.96090 | -80.78816 | 26562 ft | 462 kts | 336° |
| 2026-05-07 16:51 | 27.99121 | -80.80028 | 26777 ft | 462 kts | 336° |
| 2026-05-07 16:51 | 28.02115 | -80.81230 | 26974 ft | 462 kts | 336° |
| 2026-05-07 16:52 | 28.05138 | -80.82444 | 27193 ft | 461 kts | 336° |
| 2026-05-07 16:52 | 28.08162 | -80.83660 | 27441 ft | 460 kts | 336° |
| 2026-05-07 16:52 | 28.11174 | -80.84873 | 27668 ft | 459 kts | 336° |
| 2026-05-07 16:52 | 28.14184 | -80.86088 | 27879 ft | 459 kts | 336° |
| 2026-05-07 16:53 | 28.17189 | -80.87304 | 28090 ft | 458 kts | 336° |
| 2026-05-07 16:53 | 28.20191 | -80.88519 | 28298 ft | 458 kts | 335° |
| 2026-05-07 16:53 | 28.23190 | -80.89732 | 28515 ft | 457 kts | 335° |
| 2026-05-07 16:53 | 28.26188 | -80.90943 | 28720 ft | 457 kts | 336° |
| 2026-05-07 16:54 | 28.29181 | -80.92150 | 28909 ft | 457 kts | 335° |
| 2026-05-07 16:54 | 28.32188 | -80.93362 | 29106 ft | 457 kts | 335° |
| 2026-05-07 16:54 | 28.35178 | -80.94569 | 29306 ft | 457 kts | 335° |
| 2026-05-07 16:54 | 28.38173 | -80.95779 | 29519 ft | 456 kts | 335° |
| 2026-05-07 16:55 | 28.41158 | -80.96985 | 29751 ft | 455 kts | 335° |
| 2026-05-07 16:55 | 28.44143 | -80.98195 | 29953 ft | 455 kts | 335° |
| 2026-05-07 16:55 | 28.47120 | -80.99403 | 30144 ft | 454 kts | 335° |
| 2026-05-07 16:55 | 28.50092 | -81.00614 | 30313 ft | 454 kts | 335° |
| 2026-05-07 16:56 | 28.53065 | -81.01823 | 30478 ft | 453 kts | 335° |
| 2026-05-07 16:56 | 28.56032 | -81.03024 | 30661 ft | 453 kts | 335° |
| 2026-05-07 16:56 | 28.61969 | -81.05432 | 31006 ft | 452 kts | 335° |
| 2026-05-07 16:57 | 28.64926 | -81.06634 | 31183 ft | 451 kts | 335° |
| 2026-05-07 16:57 | 28.67841 | -81.07822 | 31413 ft | 451 kts | 334° |
| 2026-05-07 16:57 | 28.70789 | -81.09024 | 31622 ft | 450 kts | 334° |
| 2026-05-07 16:57 | 28.73731 | -81.10223 | 31837 ft | 449 kts | 334° |
| 2026-05-07 16:58 | 28.76669 | -81.11421 | 32035 ft | 448 kts | 334° |
| 2026-05-07 16:58 | 28.79604 | -81.12617 | 32231 ft | 447 kts | 334° |
| 2026-05-07 16:58 | 28.82532 | -81.13812 | 32431 ft | 447 kts | 334° |
| 2026-05-07 16:58 | 28.85455 | -81.15009 | 32611 ft | 446 kts | 334° |
| 2026-05-07 16:59 | 28.88383 | -81.16209 | 32813 ft | 446 kts | 334° |
| 2026-05-07 16:59 | 28.91304 | -81.17405 | 32998 ft | 446 kts | 334° |
| 2026-05-07 16:59 | 28.97162 | -81.19800 | 33075 ft | 448 kts | 334° |
| 2026-05-07 17:00 | 29.03034 | -81.22203 | 33066 ft | 447 kts | 334° |
| 2026-05-07 17:00 | 29.08885 | -81.24600 | 33069 ft | 447 kts | 334° |
| 2026-05-07 17:01 | 29.14742 | -81.27007 | 33058 ft | 447 kts | 334° |
| 2026-05-07 17:01 | 29.20594 | -81.29419 | 33066 ft | 447 kts | 333° |
| 2026-05-07 17:02 | 29.26487 | -81.31772 | 33065 ft | 452 kts | 338° |
| 2026-05-07 17:02 | 29.32832 | -81.32625 | 33066 ft | 464 kts | 349° |
| 2026-05-07 17:03 | 29.39291 | -81.32988 | 33072 ft | 464 kts | 349° |
| 2026-05-07 17:03 | 29.45711 | -81.33372 | 33061 ft | 464 kts | 349° |
| 2026-05-07 17:04 | 29.52164 | -81.33759 | 33068 ft | 464 kts | 349° |
| 2026-05-07 17:04 | 29.58616 | -81.34140 | 33064 ft | 464 kts | 349° |
| 2026-05-07 17:05 | 29.65073 | -81.34518 | 33058 ft | 464 kts | 349° |
| 2026-05-07 17:05 | 29.71523 | -81.34897 | 33058 ft | 464 kts | 349° |
| 2026-05-07 17:06 | 29.77977 | -81.35287 | 33063 ft | 464 kts | 349° |
| 2026-05-07 17:06 | 29.84430 | -81.35666 | 33088 ft | 464 kts | 349° |
| 2026-05-07 17:07 | 29.90843 | -81.36046 | 33082 ft | 464 kts | 349° |
| 2026-05-07 17:07 | 29.97296 | -81.36432 | 33075 ft | 464 kts | 349° |
| 2026-05-07 17:08 | 30.03744 | -81.36821 | 33071 ft | 464 kts | 349° |
| 2026-05-07 17:08 | 30.10199 | -81.37204 | 33066 ft | 464 kts | 349° |
| 2026-05-07 17:09 | 30.16642 | -81.37584 | 33056 ft | 462 kts | 348° |
| 2026-05-07 17:09 | 30.23067 | -81.37970 | 33043 ft | 462 kts | 348° |
| 2026-05-07 17:10 | 30.29498 | -81.38359 | 33069 ft | 463 kts | 348° |
| 2026-05-07 17:10 | 30.35933 | -81.38749 | 33074 ft | 463 kts | 348° |
| 2026-05-07 17:11 | 30.42363 | -81.39128 | 33076 ft | 463 kts | 348° |
| 2026-05-07 17:11 | 30.48812 | -81.39501 | 33078 ft | 464 kts | 348° |
| 2026-05-07 17:12 | 30.55230 | -81.39846 | 33090 ft | 464 kts | 348° |
| 2026-05-07 17:12 | 30.61687 | -81.40178 | 33090 ft | 464 kts | 348° |
| 2026-05-07 17:13 | 30.68144 | -81.40509 | 33116 ft | 464 kts | 348° |
| 2026-05-07 17:13 | 30.74586 | -81.40851 | 33096 ft | 463 kts | 348° |
| 2026-05-07 17:14 | 30.81030 | -81.41204 | 33077 ft | 463 kts | 348° |
| 2026-05-07 17:14 | 30.87462 | -81.41547 | 33061 ft | 463 kts | 348° |
| 2026-05-07 17:15 | 30.93850 | -81.41881 | 33026 ft | 462 kts | 348° |
| 2026-05-07 17:15 | 31.00272 | -81.42221 | 33030 ft | 462 kts | 349° |
| 2026-05-07 17:16 | 31.06689 | -81.42565 | 33019 ft | 462 kts | 349° |
| 2026-05-07 17:16 | 31.13136 | -81.42914 | 33011 ft | 462 kts | 349° |
| 2026-05-07 17:17 | 31.19561 | -81.43251 | 33279 ft | 462 kts | 349° |
| 2026-05-07 17:17 | 31.22764 | -81.43420 | 33490 ft | 461 kts | 349° |
| 2026-05-07 17:17 | 31.25967 | -81.43586 | 33689 ft | 461 kts | 350° |
| 2026-05-07 17:18 | 31.29188 | -81.43697 | 33820 ft | 464 kts | 351° |
| 2026-05-07 17:18 | 31.32429 | -81.43744 | 33951 ft | 466 kts | 352° |
| 2026-05-07 17:18 | 31.35672 | -81.43751 | 34087 ft | 466 kts | 352° |
| 2026-05-07 17:18 | 31.38918 | -81.43749 | 34241 ft | 466 kts | 352° |
| 2026-05-07 17:19 | 31.42155 | -81.43755 | 34387 ft | 465 kts | 352° |
| 2026-05-07 17:19 | 31.45389 | -81.43776 | 34538 ft | 465 kts | 352° |
| 2026-05-07 17:19 | 31.48644 | -81.43539 | 34673 ft | 474 kts | 0° |
| 2026-05-07 17:19 | 31.51906 | -81.42852 | 34840 ft | 477 kts | 2° |
| 2026-05-07 17:20 | 31.57324 | -81.41653 | 34973 ft | 477 kts | 2° |
| 2026-05-07 17:20 | 31.63800 | -81.40211 | 34968 ft | 473 kts | 2° |
| 2026-05-07 17:21 | 31.70205 | -81.38767 | 34952 ft | 464 kts | 2° |
| 2026-05-07 17:21 | 31.76501 | -81.37351 | 34950 ft | 456 kts | 2° |
| 2026-05-07 17:22 | 31.82741 | -81.35960 | 34941 ft | 460 kts | 2° |
| 2026-05-07 17:22 | 31.89102 | -81.34559 | 34950 ft | 470 kts | 2° |
| 2026-05-07 17:23 | 31.95539 | -81.33120 | 34938 ft | 478 kts | 2° |
| 2026-05-07 17:23 | 32.02098 | -81.31634 | 34949 ft | 480 kts | 3° |
| 2026-05-07 17:24 | 32.08678 | -81.30145 | 34950 ft | 483 kts | 2° |
| 2026-05-07 17:24 | 32.15284 | -81.28656 | 34952 ft | 484 kts | 2° |
| 2026-05-07 17:25 | 32.21901 | -81.27163 | 34957 ft | 484 kts | 2° |
| 2026-05-07 17:25 | 32.28512 | -81.25671 | 34966 ft | 484 kts | 2° |
| 2026-05-07 17:26 | 32.35125 | -81.24170 | 34971 ft | 484 kts | 2° |
| 2026-05-07 17:26 | 32.41741 | -81.22661 | 34960 ft | 485 kts | 2° |
| 2026-05-07 17:27 | 32.48323 | -81.21163 | 34947 ft | 485 kts | 2° |
| 2026-05-07 17:27 | 32.54957 | -81.19651 | 34957 ft | 486 kts | 2° |
| 2026-05-07 17:28 | 32.61594 | -81.18126 | 34989 ft | 486 kts | 2° |
| 2026-05-07 17:28 | 32.62696 | -81.17872 | 34987 ft | 486 kts | 2° |
| 2026-05-07 17:29 | 32.67243 | -81.16824 | 34968 ft | 487 kts | 2° |
| 2026-05-07 17:29 | 32.73899 | -81.15285 | 34954 ft | 487 kts | 2° |
| 2026-05-07 17:30 | 32.80547 | -81.13743 | 34942 ft | 487 kts | 2° |
| 2026-05-07 17:30 | 32.87198 | -81.12202 | 34955 ft | 488 kts | 1° |
| 2026-05-07 17:31 | 32.93880 | -81.10658 | 34940 ft | 489 kts | 1° |
| 2026-05-07 17:31 | 33.00566 | -81.09105 | 34932 ft | 490 kts | 1° |
| 2026-05-07 17:32 | 33.07208 | -81.07560 | 34932 ft | 490 kts | 1° |
| 2026-05-07 17:32 | 33.13908 | -81.06006 | 34935 ft | 490 kts | 1° |
| 2026-05-07 17:33 | 33.20619 | -81.04445 | 34935 ft | 491 kts | 1° |
| 2026-05-07 17:33 | 33.27320 | -81.02878 | 34931 ft | 490 kts | 1° |
| 2026-05-07 17:34 | 33.34026 | -81.01316 | 34936 ft | 491 kts | 1° |
| 2026-05-07 17:34 | 33.40737 | -80.99741 | 34959 ft | 491 kts | 0° |
| 2026-05-07 17:35 | 33.47409 | -80.98171 | 34947 ft | 491 kts | 0° |
| 2026-05-07 17:35 | 33.54120 | -80.96587 | 34931 ft | 491 kts | 0° |
| 2026-05-07 17:36 | 33.60838 | -80.95010 | 34929 ft | 492 kts | 0° |
| 2026-05-07 17:36 | 33.67559 | -80.93431 | 34915 ft | 492 kts | 359° |
| 2026-05-07 17:37 | 33.74286 | -80.91845 | 34891 ft | 493 kts | 359° |
| 2026-05-07 17:37 | 33.80987 | -80.90262 | 34884 ft | 494 kts | 360° |
| 2026-05-07 17:38 | 33.87768 | -80.88690 | 34905 ft | 491 kts | 358° |
| 2026-05-07 17:38 | 33.94433 | -80.87454 | 35050 ft | 486 kts | 356° |
| 2026-05-07 17:39 | 33.97784 | -80.86907 | 35214 ft | 484 kts | 355° |
| 2026-05-07 17:39 | 34.01120 | -80.86366 | 35360 ft | 484 kts | 355° |
| 2026-05-07 17:39 | 34.04445 | -80.85810 | 35484 ft | 484 kts | 356° |
| 2026-05-07 17:39 | 34.07776 | -80.85229 | 35623 ft | 484 kts | 356° |
| 2026-05-07 17:40 | 34.11113 | -80.84625 | 35744 ft | 484 kts | 356° |
| 2026-05-07 17:40 | 34.14433 | -80.84015 | 35922 ft | 483 kts | 356° |
| 2026-05-07 17:40 | 34.17756 | -80.83405 | 36034 ft | 483 kts | 355° |
| 2026-05-07 17:40 | 34.21084 | -80.82796 | 36157 ft | 483 kts | 355° |
| 2026-05-07 17:41 | 34.24402 | -80.82191 | 36286 ft | 482 kts | 355° |
| 2026-05-07 17:41 | 34.27716 | -80.81587 | 36409 ft | 482 kts | 355° |
| 2026-05-07 17:41 | 34.31033 | -80.80982 | 36527 ft | 481 kts | 355° |
| 2026-05-07 17:41 | 34.34332 | -80.80382 | 36656 ft | 480 kts | 355° |
| 2026-05-07 17:42 | 34.37629 | -80.79781 | 36805 ft | 478 kts | 355° |
| 2026-05-07 17:42 | 34.40923 | -80.79184 | 36890 ft | 480 kts | 354° |
| 2026-05-07 17:42 | 34.47556 | -80.78002 | 36893 ft | 483 kts | 354° |
| 2026-05-07 17:43 | 34.54217 | -80.76794 | 36899 ft | 484 kts | 355° |
| 2026-05-07 17:43 | 34.60835 | -80.75572 | 36906 ft | 484 kts | 355° |
| 2026-05-07 17:44 | 34.67501 | -80.74346 | 36915 ft | 484 kts | 354° |
| 2026-05-07 17:44 | 34.74159 | -80.73133 | 36911 ft | 484 kts | 354° |
| 2026-05-07 17:45 | 34.80829 | -80.71915 | 36909 ft | 485 kts | 354° |
| 2026-05-07 17:45 | 34.87507 | -80.70686 | 36903 ft | 486 kts | 354° |
| 2026-05-07 17:46 | 34.94202 | -80.69456 | 36898 ft | 487 kts | 354° |
| 2026-05-07 17:46 | 35.00901 | -80.68220 | 36878 ft | 487 kts | 354° |
| 2026-05-07 17:47 | 35.07613 | -80.66977 | 36875 ft | 487 kts | 354° |
| 2026-05-07 17:47 | 35.14323 | -80.65730 | 36927 ft | 488 kts | 353° |
| 2026-05-07 17:48 | 35.21044 | -80.64493 | 36902 ft | 488 kts | 353° |
| 2026-05-07 17:48 | 35.27729 | -80.63260 | 36917 ft | 489 kts | 353° |
| 2026-05-07 17:49 | 35.34481 | -80.62000 | 36874 ft | 491 kts | 353° |
| 2026-05-07 17:49 | 35.41239 | -80.60734 | 36891 ft | 491 kts | 353° |
| 2026-05-07 17:50 | 35.47979 | -80.59475 | 36881 ft | 490 kts | 353° |
| 2026-05-07 17:50 | 35.54727 | -80.58223 | 36885 ft | 490 kts | 353° |
| 2026-05-07 17:51 | 35.61484 | -80.56960 | 36888 ft | 491 kts | 353° |
| 2026-05-07 17:51 | 35.68244 | -80.55690 | 36895 ft | 492 kts | 353° |
| 2026-05-07 17:52 | 35.75008 | -80.54420 | 36900 ft | 492 kts | 353° |
| 2026-05-07 17:52 | 35.81749 | -80.53156 | 36888 ft | 492 kts | 353° |
| 2026-05-07 17:53 | 35.88517 | -80.51882 | 36919 ft | 492 kts | 353° |
| 2026-05-07 17:53 | 35.95281 | -80.50597 | 36872 ft | 491 kts | 353° |
| 2026-05-07 17:54 | 36.02032 | -80.49320 | 36875 ft | 491 kts | 353° |
| 2026-05-07 17:54 | 36.08758 | -80.48042 | 36879 ft | 491 kts | 353° |
| 2026-05-07 17:55 | 36.15509 | -80.46763 | 36874 ft | 490 kts | 353° |
| 2026-05-07 17:55 | 36.22241 | -80.45482 | 36862 ft | 488 kts | 353° |
| 2026-05-07 17:56 | 36.28966 | -80.44211 | 36906 ft | 489 kts | 353° |
| 2026-05-07 17:56 | 36.35701 | -80.42936 | 36933 ft | 490 kts | 353° |
| 2026-05-07 17:57 | 36.41310 | -80.41865 | 36952 ft | 490 kts | 353° |
| 2026-05-07 17:57 | 36.49199 | -80.40283 | 36946 ft | 492 kts | 354° |
| 2026-05-07 17:58 | 36.55956 | -80.38883 | 36942 ft | 492 kts | 354° |
| 2026-05-07 17:58 | 36.62719 | -80.37488 | 36929 ft | 493 kts | 353° |
| 2026-05-07 17:59 | 36.69415 | -80.36114 | 36908 ft | 489 kts | 353° |
| 2026-05-07 17:59 | 36.76141 | -80.34776 | 36911 ft | 487 kts | 352° |
| 2026-05-07 18:00 | 36.82837 | -80.33774 | 36907 ft | 483 kts | 349° |
| 2026-05-07 18:00 | 36.89526 | -80.32955 | 36944 ft | 483 kts | 349° |
| 2026-05-07 18:01 | 36.96225 | -80.32082 | 36963 ft | 485 kts | 350° |
| 2026-05-07 18:01 | 37.02949 | -80.31111 | 36978 ft | 487 kts | 350° |
| 2026-05-07 18:02 | 37.13043 | -80.29638 | 36981 ft | 485 kts | 349° |
| 2026-05-07 18:03 | 37.19738 | -80.28672 | 36980 ft | 485 kts | 349° |
| 2026-05-07 18:03 | 37.26406 | -80.27722 | 36979 ft | 486 kts | 349° |
| 2026-05-07 18:04 | 37.33128 | -80.26766 | 36998 ft | 487 kts | 349° |
| 2026-05-07 18:04 | 37.39857 | -80.25791 | 36964 ft | 487 kts | 349° |
| 2026-05-07 18:05 | 37.46601 | -80.24815 | 36962 ft | 487 kts | 349° |
| 2026-05-07 18:05 | 37.53345 | -80.23848 | 36973 ft | 488 kts | 349° |
| 2026-05-07 18:06 | 37.60101 | -80.22871 | 36958 ft | 488 kts | 349° |
| 2026-05-07 18:06 | 37.66858 | -80.21888 | 36956 ft | 489 kts | 349° |
| 2026-05-07 18:07 | 37.73625 | -80.20888 | 36958 ft | 490 kts | 349° |
| 2026-05-07 18:07 | 37.80394 | -80.19871 | 36985 ft | 491 kts | 350° |
| 2026-05-07 18:08 | 37.86026 | -80.19027 | 36951 ft | 490 kts | 350° |
| 2026-05-07 18:08 | 37.93897 | -80.17854 | 36952 ft | 491 kts | 350° |
| 2026-05-07 18:09 | 37.99592 | -80.17002 | 36963 ft | 492 kts | 350° |
| 2026-05-07 18:09 | 38.07500 | -80.15822 | 36959 ft | 492 kts | 350° |
| 2026-05-07 18:10 | 38.14310 | -80.14799 | 36971 ft | 493 kts | 350° |
| 2026-05-07 18:10 | 38.21117 | -80.13762 | 36975 ft | 493 kts | 350° |
| 2026-05-07 18:11 | 38.27934 | -80.12732 | 36955 ft | 492 kts | 350° |
| 2026-05-07 18:11 | 38.34718 | -80.11698 | 36942 ft | 491 kts | 350° |
| 2026-05-07 18:12 | 38.40336 | -80.11008 | 36951 ft | 484 kts | 346° |
| 2026-05-07 18:12 | 38.48108 | -80.10643 | 37034 ft | 479 kts | 344° |
| 2026-05-07 18:13 | 38.54773 | -80.10454 | 36952 ft | 480 kts | 345° |
| 2026-05-07 18:13 | 38.60339 | -80.10204 | 36951 ft | 483 kts | 346° |
| 2026-05-07 18:14 | 38.67066 | -80.09805 | 36964 ft | 484 kts | 346° |
| 2026-05-07 18:14 | 38.73804 | -80.09394 | 36974 ft | 485 kts | 346° |
| 2026-05-07 18:15 | 38.80536 | -80.09016 | 36964 ft | 484 kts | 346° |
| 2026-05-07 18:15 | 38.87275 | -80.08660 | 36973 ft | 486 kts | 346° |
| 2026-05-07 18:16 | 38.94080 | -80.07989 | 37039 ft | 503 kts | 355° |
| 2026-05-07 18:16 | 39.00959 | -80.06498 | 36945 ft | 500 kts | 355° |
| 2026-05-07 18:17 | 39.07820 | -80.04998 | 36951 ft | 501 kts | 355° |
| 2026-05-07 18:17 | 39.14670 | -80.03515 | 36966 ft | 502 kts | 355° |
| 2026-05-07 18:18 | 39.21565 | -80.02025 | 36970 ft | 501 kts | 355° |
| 2026-05-07 18:18 | 39.28433 | -80.00546 | 36977 ft | 501 kts | 355° |
| 2026-05-07 18:19 | 39.35309 | -79.99064 | 36983 ft | 501 kts | 355° |
| 2026-05-07 18:19 | 39.42168 | -79.97561 | 36945 ft | 496 kts | 356° |
| 2026-05-07 18:20 | 39.48970 | -79.96067 | 36943 ft | 495 kts | 356° |
| 2026-05-07 18:20 | 39.55773 | -79.94594 | 36945 ft | 496 kts | 356° |
| 2026-05-07 18:21 | 39.62546 | -79.93125 | 36995 ft | 497 kts | 356° |
| 2026-05-07 18:21 | 39.69373 | -79.91623 | 36988 ft | 498 kts | 357° |
| 2026-05-07 18:22 | 39.76198 | -79.90111 | 36985 ft | 498 kts | 356° |
| 2026-05-07 18:22 | 39.83028 | -79.88608 | 37006 ft | 497 kts | 357° |
| 2026-05-07 18:23 | 39.89807 | -79.87110 | 36943 ft | 493 kts | 357° |
| 2026-05-07 18:23 | 39.96571 | -79.85615 | 36944 ft | 494 kts | 357° |
| 2026-05-07 18:24 | 40.03357 | -79.84119 | 36994 ft | 494 kts | 358° |
| 2026-05-07 18:24 | 40.10148 | -79.82614 | 36977 ft | 495 kts | 358° |
| 2026-05-07 18:25 | 40.16950 | -79.81103 | 36968 ft | 495 kts | 358° |
| 2026-05-07 18:25 | 40.23744 | -79.79587 | 36948 ft | 495 kts | 358° |
| 2026-05-07 18:26 | 40.30503 | -79.78084 | 36943 ft | 496 kts | 358° |
| 2026-05-07 18:26 | 40.37306 | -79.76569 | 36947 ft | 496 kts | 358° |
| 2026-05-07 18:27 | 40.44121 | -79.75042 | 36953 ft | 497 kts | 358° |
| 2026-05-07 18:27 | 40.50927 | -79.73502 | 36940 ft | 495 kts | 358° |
| 2026-05-07 18:28 | 40.57711 | -79.71964 | 36949 ft | 494 kts | 358° |
| 2026-05-07 18:28 | 40.64460 | -79.70451 | 36954 ft | 495 kts | 358° |
| 2026-05-07 18:29 | 40.71251 | -79.68916 | 36951 ft | 494 kts | 359° |
| 2026-05-07 18:29 | 40.78023 | -79.67387 | 36948 ft | 494 kts | 358° |
| 2026-05-07 18:30 | 40.84802 | -79.65864 | 36950 ft | 495 kts | 358° |
| 2026-05-07 18:30 | 40.91593 | -79.64319 | 36990 ft | 496 kts | 359° |
| 2026-05-07 18:31 | 40.98404 | -79.62755 | 36976 ft | 497 kts | 359° |
| 2026-05-07 18:31 | 41.05215 | -79.61201 | 36965 ft | 497 kts | 359° |
| 2026-05-07 18:32 | 41.12030 | -79.59640 | 36941 ft | 496 kts | 359° |
| 2026-05-07 18:32 | 41.18766 | -79.58103 | 36929 ft | 494 kts | 359° |
| 2026-05-07 18:33 | 41.25539 | -79.56553 | 36930 ft | 495 kts | 359° |
| 2026-05-07 18:33 | 41.32345 | -79.54988 | 36971 ft | 496 kts | 359° |
| 2026-05-07 18:34 | 41.39157 | -79.53409 | 36963 ft | 497 kts | 359° |
| 2026-05-07 18:34 | 41.45965 | -79.51827 | 36957 ft | 497 kts | 359° |
| 2026-05-07 18:35 | 41.52782 | -79.50251 | 36961 ft | 496 kts | 360° |
| 2026-05-07 18:35 | 41.59553 | -79.48674 | 36928 ft | 493 kts | 360° |
| 2026-05-07 18:36 | 41.66313 | -79.47104 | 36939 ft | 494 kts | 359° |
| 2026-05-07 18:36 | 41.73095 | -79.45535 | 36979 ft | 494 kts | 360° |
| 2026-05-07 18:37 | 41.79829 | -79.43966 | 36791 ft | 493 kts | 360° |
| 2026-05-07 18:37 | 41.83209 | -79.43173 | 36061 ft | 493 kts | 360° |
| 2026-05-07 18:37 | 41.86578 | -79.42382 | 35317 ft | 492 kts | 359° |
| 2026-05-07 18:37 | 41.89958 | -79.41585 | 34559 ft | 493 kts | 359° |
| 2026-05-07 18:38 | 41.93336 | -79.40791 | 33890 ft | 493 kts | 359° |
| 2026-05-07 18:38 | 41.96713 | -79.39998 | 33047 ft | 492 kts | 359° |
| 2026-05-07 18:38 | 42.00095 | -79.39203 | 32175 ft | 493 kts | 359° |
| 2026-05-07 18:38 | 42.03471 | -79.38411 | 31294 ft | 494 kts | 358° |
| 2026-05-07 18:39 | 42.06859 | -79.37617 | 30411 ft | 495 kts | 358° |
| 2026-05-07 18:39 | 42.10255 | -79.36824 | 29415 ft | 494 kts | 357° |
| 2026-05-07 18:39 | 42.13644 | -79.36403 | 28368 ft | 486 kts | 352° |
| 2026-05-07 18:39 | 42.17021 | -79.36130 | 27260 ft | 488 kts | 352° |
| 2026-05-07 18:40 | 42.20421 | -79.35867 | 26170 ft | 490 kts | 353° |
| 2026-05-07 18:40 | 42.23835 | -79.35604 | 25556 ft | 491 kts | 353° |
| 2026-05-07 18:40 | 42.27258 | -79.35333 | 25307 ft | 494 kts | 353° |
| 2026-05-07 18:40 | 42.30656 | -79.35057 | 25067 ft | 496 kts | 354° |
| 2026-05-07 18:41 | 42.34097 | -79.34773 | 24824 ft | 496 kts | 354° |
| 2026-05-07 18:41 | 42.37544 | -79.34489 | 24584 ft | 496 kts | 354° |
| 2026-05-07 18:41 | 42.40997 | -79.34211 | 24338 ft | 497 kts | 354° |
| 2026-05-07 18:41 | 42.44448 | -79.33937 | 24111 ft | 497 kts | 354° |
| 2026-05-07 18:42 | 42.47900 | -79.33664 | 23881 ft | 496 kts | 354° |
| 2026-05-07 18:42 | 42.51339 | -79.33388 | 23646 ft | 494 kts | 354° |
| 2026-05-07 18:42 | 42.54764 | -79.33110 | 23433 ft | 492 kts | 355° |
| 2026-05-07 18:42 | 42.58175 | -79.32832 | 23155 ft | 490 kts | 355° |
| 2026-05-07 18:43 | 42.61574 | -79.32549 | 22876 ft | 487 kts | 355° |
| 2026-05-07 18:43 | 42.64949 | -79.32269 | 22599 ft | 485 kts | 355° |
| 2026-05-07 18:43 | 42.68309 | -79.31993 | 22325 ft | 482 kts | 355° |
| 2026-05-07 18:43 | 42.71499 | -79.31732 | 22065 ft | 480 kts | 355° |
| 2026-05-07 18:44 | 42.74828 | -79.31457 | 21548 ft | 475 kts | 356° |
| 2026-05-07 18:44 | 42.76999 | -79.31279 | 20980 ft | 472 kts | 356° |
| 2026-05-07 18:44 | 42.81336 | -79.30923 | 19974 ft | 462 kts | 356° |
| 2026-05-07 18:44 | 42.84504 | -79.30887 | 19168 ft | 449 kts | 349° |
| 2026-05-07 18:45 | 42.87574 | -79.31210 | 18606 ft | 437 kts | 349° |
| 2026-05-07 18:45 | 42.90585 | -79.31516 | 17854 ft | 431 kts | 349° |
| 2026-05-07 18:45 | 42.93552 | -79.31806 | 17208 ft | 423 kts | 349° |
| 2026-05-07 18:45 | 42.96460 | -79.32089 | 16540 ft | 414 kts | 349° |
| 2026-05-07 18:46 | 42.99304 | -79.32368 | 15933 ft | 405 kts | 349° |
| 2026-05-07 18:46 | 43.02060 | -79.32637 | 15340 ft | 397 kts | 349° |
| 2026-05-07 18:46 | 43.04784 | -79.32904 | 14773 ft | 389 kts | 350° |
| 2026-05-07 18:46 | 43.07466 | -79.33170 | 14226 ft | 386 kts | 350° |
| 2026-05-07 18:47 | 43.10138 | -79.33437 | 13681 ft | 383 kts | 350° |
| 2026-05-07 18:47 | 43.12784 | -79.33705 | 13116 ft | 379 kts | 350° |
| 2026-05-07 18:47 | 43.15359 | -79.33964 | 12911 ft | 363 kts | 350° |
| 2026-05-07 18:47 | 43.17821 | -79.34206 | 12775 ft | 347 kts | 350° |
| 2026-05-07 18:48 | 43.20175 | -79.34434 | 12637 ft | 331 kts | 350° |
| 2026-05-07 18:48 | 43.22418 | -79.34654 | 12501 ft | 316 kts | 350° |
| 2026-05-07 18:48 | 43.24563 | -79.34868 | 12355 ft | 303 kts | 349° |
| 2026-05-07 18:48 | 43.26643 | -79.35076 | 12043 ft | 296 kts | 350° |
| 2026-05-07 18:49 | 43.28682 | -79.35288 | 11781 ft | 292 kts | 348° |
| 2026-05-07 18:49 | 43.30649 | -79.35839 | 11522 ft | 286 kts | 336° |
| 2026-05-07 18:49 | 43.32466 | -79.36869 | 11264 ft | 281 kts | 329° |
| 2026-05-07 18:49 | 43.34230 | -79.38024 | 11074 ft | 280 kts | 329° |
| 2026-05-07 18:50 | 43.35991 | -79.39155 | 11036 ft | 280 kts | 329° |
| 2026-05-07 18:50 | 43.37760 | -79.40286 | 10880 ft | 280 kts | 330° |
| 2026-05-07 18:50 | 43.39528 | -79.41415 | 10617 ft | 279 kts | 330° |
| 2026-05-07 18:50 | 43.41263 | -79.42526 | 10249 ft | 279 kts | 330° |
| 2026-05-07 18:51 | 43.43023 | -79.43655 | 9750 ft | 279 kts | 331° |
| 2026-05-07 18:51 | 43.44784 | -79.44788 | 9266 ft | 278 kts | 331° |
| 2026-05-07 18:51 | 43.46532 | -79.45916 | 8789 ft | 277 kts | 331° |
| 2026-05-07 18:51 | 43.48260 | -79.47030 | 8472 ft | 270 kts | 331° |
| 2026-05-07 18:52 | 43.49925 | -79.48100 | 8338 ft | 257 kts | 331° |
| 2026-05-07 18:52 | 43.50980 | -79.48777 | 8259 ft | 249 kts | 331° |
| 2026-05-07 18:52 | 43.53010 | -79.50083 | 8110 ft | 236 kts | 330° |
| 2026-05-07 18:52 | 43.54483 | -79.51034 | 7832 ft | 232 kts | 330° |
| 2026-05-07 18:53 | 43.55944 | -79.51979 | 7468 ft | 232 kts | 331° |
| 2026-05-07 18:53 | 43.57407 | -79.52920 | 7108 ft | 231 kts | 333° |
| 2026-05-07 18:53 | 43.58981 | -79.53391 | 6762 ft | 236 kts | 359° |
| 2026-05-07 18:53 | 43.60565 | -79.52789 | 6433 ft | 241 kts | 28° |
| 2026-05-07 18:54 | 43.61831 | -79.51258 | 6077 ft | 244 kts | 44° |
| 2026-05-07 18:54 | 43.62980 | -79.49572 | 5762 ft | 244 kts | 44° |
| 2026-05-07 18:54 | 43.64140 | -79.47871 | 5473 ft | 243 kts | 44° |
| 2026-05-07 18:54 | 43.65294 | -79.46182 | 5142 ft | 241 kts | 44° |
| 2026-05-07 18:55 | 43.66448 | -79.44497 | 4809 ft | 240 kts | 44° |
| 2026-05-07 18:55 | 43.67594 | -79.42820 | 4495 ft | 239 kts | 44° |
| 2026-05-07 18:55 | 43.68731 | -79.41157 | 4204 ft | 237 kts | 43° |
| 2026-05-07 18:55 | 43.69855 | -79.39516 | 4045 ft | 236 kts | 43° |
| 2026-05-07 18:56 | 43.70981 | -79.37875 | 4024 ft | 236 kts | 43° |
| 2026-05-07 18:56 | 43.72110 | -79.36223 | 4026 ft | 236 kts | 43° |
| 2026-05-07 18:56 | 43.73240 | -79.34565 | 4027 ft | 236 kts | 44° |
| 2026-05-07 18:56 | 43.74366 | -79.32913 | 4031 ft | 236 kts | 44° |
| 2026-05-07 18:57 | 43.75599 | -79.31436 | 4022 ft | 232 kts | 22° |
| 2026-05-07 18:57 | 43.77125 | -79.31000 | 3996 ft | 223 kts | 350° |
| 2026-05-07 18:57 | 43.78517 | -79.31774 | 3874 ft | 215 kts | 316° |
| 2026-05-07 18:57 | 43.79131 | -79.32833 | 3795 ft | 213 kts | 293° |
| 2026-05-07 18:58 | 43.79320 | -79.35489 | 3689 ft | 205 kts | 263° |
| 2026-05-07 18:58 | 43.79082 | -79.37397 | 3573 ft | 199 kts | 260° |
| 2026-05-07 18:58 | 43.78819 | -79.39247 | 3530 ft | 196 kts | 259° |
| 2026-05-07 18:58 | 43.78556 | -79.41091 | 3526 ft | 195 kts | 260° |
| 2026-05-07 18:59 | 43.78292 | -79.42931 | 3524 ft | 195 kts | 260° |
| 2026-05-07 18:59 | 43.77959 | -79.44747 | 3495 ft | 196 kts | 248° |
| 2026-05-07 18:59 | 43.77147 | -79.46266 | 3272 ft | 198 kts | 230° |
| 2026-05-07 18:59 | 43.76194 | -79.47644 | 3022 ft | 199 kts | 230° |
| 2026-05-07 19:00 | 43.75244 | -79.49024 | 2766 ft | 196 kts | 231° |
| 2026-05-07 19:00 | 43.74328 | -79.50358 | 2484 ft | 185 kts | 231° |
| 2026-05-07 19:00 | 43.73473 | -79.51604 | 2247 ft | 169 kts | 229° |
| 2026-05-07 19:00 | 43.72696 | -79.52737 | 2016 ft | 157 kts | 231° |
| 2026-05-07 19:01 | 43.71967 | -79.53798 | 1791 ft | 149 kts | 230° |
| 2026-05-07 19:01 | 43.71253 | -79.54820 | 1560 ft | 146 kts | 230° |
| 2026-05-07 19:01 | 43.70551 | -79.55835 | 1344 ft | 147 kts | 230° |
| 2026-05-07 19:01 | 43.69867 | -79.56858 | 1123 ft | 148 kts | 231° |
| 2026-05-07 19:02 | 43.69156 | -79.57894 | 1000 ft | 149 kts | 231° |
| 2026-05-07 19:02 | 43.68450 | -79.58914 | 783 ft | 144 kts | 231° |
| 2026-05-07 19:02 | 43.67786 | -79.59903 | 582 ft | 138 kts | 229° |
| 2026-05-07 19:02 | 43.67198 | -79.60753 | 563 ft | 95 kts | 226° |
| 2026-05-07 19:03 | 43.66963 | -79.61127 | 569 ft | 31 kts | 240° |
| 2026-05-07 19:03 | 43.66897 | -79.61363 | 564 ft | 17 kts | 258° |
| 2026-05-07 19:03 | 43.66884 | -79.61443 | 562 ft | 7 kts | 257° |
| 2026-05-07 19:03 | 43.66874 | -79.61499 | 565 ft | 7 kts | 256° |
| 2026-05-07 19:04 | 43.66849 | -79.61631 | 566 ft | 14 kts | 256° |
| 2026-05-07 19:04 | 43.66866 | -79.61705 | 567 ft | 5 kts | 328° |
| 2026-05-07 19:04 | 43.66909 | -79.61702 | 573 ft | 11 kts | 29° |
| 2026-05-07 19:04 | 43.66954 | -79.61648 | 570 ft | 13 kts | 42° |
| 2026-05-07 19:05 | 43.67013 | -79.61572 | 571 ft | 10 kts | 39° |
| 2026-05-07 19:05 | 43.67085 | -79.61484 | 568 ft | 20 kts | 42° |
| 2026-05-07 19:05 | 43.67185 | -79.61350 | 572 ft | 19 kts | 52° |
| 2026-05-07 19:05 | 43.67266 | -79.61257 | 566 ft | 14 kts | 345° |
| 2026-05-07 19:06 | 43.67349 | -79.61357 | 562 ft | 20 kts | 316° |
| 2026-05-07 19:06 | 43.67550 | -79.61620 | 563 ft | 22 kts | 315° |
| 2026-05-07 19:06 | 43.67653 | -79.61752 | 563 ft | 19 kts | 316° |
| 2026-05-07 19:07 | 43.67762 | -79.61894 | 568 ft | 21 kts | 316° |
| 2026-05-07 19:07 | 43.67862 | -79.62026 | 562 ft | 19 kts | 316° |
| 2026-05-07 19:07 | 43.67971 | -79.62101 | 567 ft | 16 kts | 325° |
| 2026-05-07 19:07 | 43.68051 | -79.62204 | 565 ft | 15 kts | 316° |
| 2026-05-07 19:08 | 43.68122 | -79.62299 | 562 ft | 13 kts | 317° |
| 2026-05-07 19:08 | 43.68181 | -79.62373 | 562 ft | 12 kts | 317° |
| 2026-05-07 19:08 | 43.68262 | -79.62423 | 569 ft | 13 kts | 32° |
| 2026-05-07 19:08 | 43.68328 | -79.62379 | 566 ft | 9 kts | 15° |
| 2026-05-07 19:09 | 43.68380 | -79.62320 | 570 ft | 12 kts | 46° |
| 2026-05-07 19:09 | 43.68431 | -79.62244 | 563 ft | 10 kts | 57° |
| 2026-05-07 19:09 | 43.68423 | -79.62169 | 568 ft | 7 kts | 110° |
| 2026-05-07 19:09 | 43.68412 | -79.62120 | 569 ft | 4 kts | 107° |
| 2026-05-07 19:10 | 43.68403 | -79.62081 | 570 ft | 2 kts | 107° |
| 2026-05-07 19:10 | 43.68402 | -79.62077 | 569 ft | 0 kts | 107° |